sensor_id;sensor_type;location;lat;lon;timestamp;P1;durP1;ratioP1;P2;durP2;ratioP2
13343;SDS011;6741;48.964;9.406;2023-06-14T00:02:05;6.67;;;4.73;;
13343;SDS011;6741;48.964;9.406;2023-06-14T00:04:33;4.23;;;3.83;;
13343;SDS011;6741;48.964;9.406;2023-06-14T00:07:02;4.60;;;4.20;;
13343;SDS011;6741;48.964;9.406;2023-06-14T00:09:33;4.43;;;4.13;;
13343;SDS011;6741;48.964;9.406;2023-06-14T00:12:00;5.83;;;4.50;;
13343;SDS011;6741;48.964;9.406;2023-06-14T00:14:27;4.77;;;4.37;;
13343;SDS011;6741;48.964;9.406;2023-06-14T00:16:53;6.97;;;4.23;;
13343;SDS011;6741;48.964;9.406;2023-06-14T00:19:23;5.57;;;4.47;;
13343;SDS011;6741;48.964;9.406;2023-06-14T00:21:50;4.53;;;4.13;;
13343;SDS011;6741;48.964;9.406;2023-06-14T00:24:19;5.40;;;4.90;;
13343;SDS011;6741;48.964;9.406;2023-06-14T00:26:46;4.37;;;4.00;;
13343;SDS011;6741;48.964;9.406;2023-06-14T00:29:13;5.13;;;4.33;;
13343;SDS011;6741;48.964;9.406;2023-06-14T00:31:40;5.90;;;4.50;;
13343;SDS011;6741;48.964;9.406;2023-06-14T00:34:07;4.80;;;4.30;;
13343;SDS011;6741;48.964;9.406;2023-06-14T00:36:34;5.43;;;4.27;;
13343;SDS011;6741;48.964;9.406;2023-06-14T00:39:01;5.20;;;4.70;;
13343;SDS011;6741;48.964;9.406;2023-06-14T00:41:30;4.57;;;4.17;;
13343;SDS011;6741;48.964;9.406;2023-06-14T00:43:57;4.53;;;4.00;;
13343;SDS011;6741;48.964;9.406;2023-06-14T00:46:25;12.00;;;4.97;;
13343;SDS011;6741;48.964;9.406;2023-06-14T00:48:51;4.43;;;4.03;;
13343;SDS011;6741;48.964;9.406;2023-06-14T00:51:19;4.83;;;4.40;;
13343;SDS011;6741;48.964;9.406;2023-06-14T00:53:46;5.97;;;4.20;;
13343;SDS011;6741;48.964;9.406;2023-06-14T00:56:13;6.53;;;4.60;;
13343;SDS011;6741;48.964;9.406;2023-06-14T00:58:42;5.83;;;4.60;;
13343;SDS011;6741;48.964;9.406;2023-06-14T01:01:09;4.97;;;4.53;;
13343;SDS011;6741;48.964;9.406;2023-06-14T01:03:37;4.67;;;4.27;;
13343;SDS011;6741;48.964;9.406;2023-06-14T01:06:05;4.83;;;4.27;;
13343;SDS011;6741;48.964;9.406;2023-06-14T01:08:44;6.83;;;4.43;;
13343;SDS011;6741;48.964;9.406;2023-06-14T01:11:18;5.03;;;4.53;;
13343;SDS011;6741;48.964;9.406;2023-06-14T01:13:52;6.30;;;4.30;;
13343;SDS011;6741;48.964;9.406;2023-06-14T01:16:20;5.43;;;4.77;;
13343;SDS011;6741;48.964;9.406;2023-06-14T01:18:47;6.73;;;5.00;;
13343;SDS011;6741;48.964;9.406;2023-06-14T01:21:22;4.53;;;4.23;;
13343;SDS011;6741;48.964;9.406;2023-06-14T01:23:51;6.40;;;4.50;;
13343;SDS011;6741;48.964;9.406;2023-06-14T01:26:19;5.37;;;4.87;;
13343;SDS011;6741;48.964;9.406;2023-06-14T01:28:47;5.43;;;4.63;;
13343;SDS011;6741;48.964;9.406;2023-06-14T01:31:16;6.23;;;4.70;;
13343;SDS011;6741;48.964;9.406;2023-06-14T01:33:44;6.30;;;4.83;;
13343;SDS011;6741;48.964;9.406;2023-06-14T01:36:12;5.83;;;5.23;;
13343;SDS011;6741;48.964;9.406;2023-06-14T01:38:39;7.80;;;4.80;;
13343;SDS011;6741;48.964;9.406;2023-06-14T01:41:09;6.97;;;5.00;;
13343;SDS011;6741;48.964;9.406;2023-06-14T01:43:37;5.47;;;4.97;;
13343;SDS011;6741;48.964;9.406;2023-06-14T01:46:05;5.57;;;4.53;;
13343;SDS011;6741;48.964;9.406;2023-06-14T01:48:34;5.67;;;5.17;;
13343;SDS011;6741;48.964;9.406;2023-06-14T01:51:01;4.77;;;4.47;;
13343;SDS011;6741;48.964;9.406;2023-06-14T01:53:28;4.83;;;4.43;;
13343;SDS011;6741;48.964;9.406;2023-06-14T01:55:55;5.43;;;4.93;;
13343;SDS011;6741;48.964;9.406;2023-06-14T01:58:23;8.80;;;4.83;;
13343;SDS011;6741;48.964;9.406;2023-06-14T02:00:51;6.83;;;4.60;;
13343;SDS011;6741;48.964;9.406;2023-06-14T02:03:20;5.10;;;4.70;;
13343;SDS011;6741;48.964;9.406;2023-06-14T02:05:48;5.90;;;4.93;;
13343;SDS011;6741;48.964;9.406;2023-06-14T02:08:15;6.20;;;5.60;;
13343;SDS011;6741;48.964;9.406;2023-06-14T02:10:42;5.83;;;4.90;;
13343;SDS011;6741;48.964;9.406;2023-06-14T02:13:09;5.70;;;5.00;;
13343;SDS011;6741;48.964;9.406;2023-06-14T02:15:38;5.40;;;4.90;;
13343;SDS011;6741;48.964;9.406;2023-06-14T02:18:05;5.47;;;4.80;;
13343;SDS011;6741;48.964;9.406;2023-06-14T02:20:32;5.33;;;4.70;;
13343;SDS011;6741;48.964;9.406;2023-06-14T02:22:59;6.20;;;5.60;;
13343;SDS011;6741;48.964;9.406;2023-06-14T02:25:26;6.50;;;5.30;;
13343;SDS011;6741;48.964;9.406;2023-06-14T02:27:53;5.90;;;5.30;;
13343;SDS011;6741;48.964;9.406;2023-06-14T02:30:21;5.90;;;5.40;;
13343;SDS011;6741;48.964;9.406;2023-06-14T02:32:49;6.70;;;6.10;;
13343;SDS011;6741;48.964;9.406;2023-06-14T02:35:18;6.03;;;5.43;;
13343;SDS011;6741;48.964;9.406;2023-06-14T02:37:49;6.47;;;5.70;;
13343;SDS011;6741;48.964;9.406;2023-06-14T02:40:17;7.33;;;5.80;;
13343;SDS011;6741;48.964;9.406;2023-06-14T02:42:44;6.17;;;5.57;;
13343;SDS011;6741;48.964;9.406;2023-06-14T02:45:11;7.70;;;5.33;;
13343;SDS011;6741;48.964;9.406;2023-06-14T02:47:38;8.13;;;5.73;;
13343;SDS011;6741;48.964;9.406;2023-06-14T02:50:07;5.57;;;5.07;;
13343;SDS011;6741;48.964;9.406;2023-06-14T02:52:34;5.63;;;5.13;;
13343;SDS011;6741;48.964;9.406;2023-06-14T02:55:02;7.13;;;5.17;;
13343;SDS011;6741;48.964;9.406;2023-06-14T02:57:29;6.30;;;5.37;;
13343;SDS011;6741;48.964;9.406;2023-06-14T02:59:55;7.07;;;5.63;;
13343;SDS011;6741;48.964;9.406;2023-06-14T03:02:23;8.93;;;5.10;;
13343;SDS011;6741;48.964;9.406;2023-06-14T03:04:49;5.93;;;5.10;;
13343;SDS011;6741;48.964;9.406;2023-06-14T03:07:18;5.77;;;5.27;;
13343;SDS011;6741;48.964;9.406;2023-06-14T03:09:45;7.63;;;5.30;;
13343;SDS011;6741;48.964;9.406;2023-06-14T03:12:13;5.57;;;4.93;;
13343;SDS011;6741;48.964;9.406;2023-06-14T03:14:41;7.67;;;5.13;;
13343;SDS011;6741;48.964;9.406;2023-06-14T03:17:11;7.77;;;5.27;;
13343;SDS011;6741;48.964;9.406;2023-06-14T03:19:39;5.60;;;4.97;;
13343;SDS011;6741;48.964;9.406;2023-06-14T03:22:06;6.77;;;4.63;;
13343;SDS011;6741;48.964;9.406;2023-06-14T03:24:34;10.13;;;5.27;;
13343;SDS011;6741;48.964;9.406;2023-06-14T03:27:02;7.07;;;5.30;;
13343;SDS011;6741;48.964;9.406;2023-06-14T03:29:29;5.87;;;4.93;;
13343;SDS011;6741;48.964;9.406;2023-06-14T03:31:57;6.00;;;5.40;;
13343;SDS011;6741;48.964;9.406;2023-06-14T03:34:25;6.60;;;5.20;;
13343;SDS011;6741;48.964;9.406;2023-06-14T03:36:52;6.50;;;5.50;;
13343;SDS011;6741;48.964;9.406;2023-06-14T03:39:19;7.53;;;4.70;;
13343;SDS011;6741;48.964;9.406;2023-06-14T03:41:47;6.63;;;5.93;;
13343;SDS011;6741;48.964;9.406;2023-06-14T03:44:15;7.67;;;5.60;;
13343;SDS011;6741;48.964;9.406;2023-06-14T03:46:43;6.60;;;5.23;;
13343;SDS011;6741;48.964;9.406;2023-06-14T03:49:10;6.07;;;5.47;;
13343;SDS011;6741;48.964;9.406;2023-06-14T03:51:37;6.40;;;5.70;;
13343;SDS011;6741;48.964;9.406;2023-06-14T03:54:04;5.63;;;5.07;;
13343;SDS011;6741;48.964;9.406;2023-06-14T03:56:31;6.37;;;5.43;;
13343;SDS011;6741;48.964;9.406;2023-06-14T03:59:00;6.50;;;5.53;;
13343;SDS011;6741;48.964;9.406;2023-06-14T04:01:27;6.10;;;5.50;;
13343;SDS011;6741;48.964;9.406;2023-06-14T04:03:55;6.43;;;5.83;;
13343;SDS011;6741;48.964;9.406;2023-06-14T04:06:23;6.73;;;6.10;;
13343;SDS011;6741;48.964;9.406;2023-06-14T04:08:57;5.97;;;5.37;;
13343;SDS011;6741;48.964;9.406;2023-06-14T04:11:28;6.43;;;5.83;;
13343;SDS011;6741;48.964;9.406;2023-06-14T04:13:56;9.43;;;6.03;;
13343;SDS011;6741;48.964;9.406;2023-06-14T04:16:24;6.00;;;5.50;;
13343;SDS011;6741;48.964;9.406;2023-06-14T04:18:51;7.80;;;5.93;;
13343;SDS011;6741;48.964;9.406;2023-06-14T04:21:18;6.57;;;5.97;;
13343;SDS011;6741;48.964;9.406;2023-06-14T04:23:45;7.53;;;5.47;;
13343;SDS011;6741;48.964;9.406;2023-06-14T04:26:12;7.27;;;5.83;;
13343;SDS011;6741;48.964;9.406;2023-06-14T04:28:39;6.63;;;5.93;;
13343;SDS011;6741;48.964;9.406;2023-06-14T04:31:06;6.50;;;5.90;;
13343;SDS011;6741;48.964;9.406;2023-06-14T04:33:36;6.83;;;6.23;;
13343;SDS011;6741;48.964;9.406;2023-06-14T04:36:08;6.73;;;6.00;;
13343;SDS011;6741;48.964;9.406;2023-06-14T04:38:36;7.60;;;6.80;;
13343;SDS011;6741;48.964;9.406;2023-06-14T04:41:03;6.60;;;6.00;;
13343;SDS011;6741;48.964;9.406;2023-06-14T04:43:31;6.80;;;6.20;;
13343;SDS011;6741;48.964;9.406;2023-06-14T04:46:03;7.50;;;6.70;;
13343;SDS011;6741;48.964;9.406;2023-06-14T04:48:31;7.47;;;6.17;;
13343;SDS011;6741;48.964;9.406;2023-06-14T04:50:59;7.97;;;6.13;;
13343;SDS011;6741;48.964;9.406;2023-06-14T04:53:29;7.37;;;6.70;;
13343;SDS011;6741;48.964;9.406;2023-06-14T04:55:56;7.17;;;6.47;;
13343;SDS011;6741;48.964;9.406;2023-06-14T04:58:23;8.27;;;6.30;;
13343;SDS011;6741;48.964;9.406;2023-06-14T05:00:50;6.87;;;6.17;;
13343;SDS011;6741;48.964;9.406;2023-06-14T05:03:16;7.27;;;6.40;;
13343;SDS011;6741;48.964;9.406;2023-06-14T05:05:46;9.43;;;6.10;;
13343;SDS011;6741;48.964;9.406;2023-06-14T05:08:15;7.43;;;6.70;;
13343;SDS011;6741;48.964;9.406;2023-06-14T05:10:42;7.13;;;5.93;;
13343;SDS011;6741;48.964;9.406;2023-06-14T05:13:09;9.07;;;5.90;;
13343;SDS011;6741;48.964;9.406;2023-06-14T05:15:36;7.10;;;5.73;;
13343;SDS011;6741;48.964;9.406;2023-06-14T05:18:03;6.23;;;5.63;;
13343;SDS011;6741;48.964;9.406;2023-06-14T05:20:30;6.97;;;6.00;;
13343;SDS011;6741;48.964;9.406;2023-06-14T05:22:57;6.73;;;6.00;;
13343;SDS011;6741;48.964;9.406;2023-06-14T05:25:25;6.20;;;5.60;;
13343;SDS011;6741;48.964;9.406;2023-06-14T05:27:53;5.80;;;5.30;;
13343;SDS011;6741;48.964;9.406;2023-06-14T05:30:20;5.73;;;5.23;;
13343;SDS011;6741;48.964;9.406;2023-06-14T05:32:47;6.30;;;5.70;;
13343;SDS011;6741;48.964;9.406;2023-06-14T05:35:15;6.40;;;5.80;;
13343;SDS011;6741;48.964;9.406;2023-06-14T05:37:42;5.83;;;5.33;;
13343;SDS011;6741;48.964;9.406;2023-06-14T05:40:09;6.77;;;5.47;;
13343;SDS011;6741;48.964;9.406;2023-06-14T05:42:38;7.03;;;5.33;;
13343;SDS011;6741;48.964;9.406;2023-06-14T05:45:05;7.20;;;5.77;;
13343;SDS011;6741;48.964;9.406;2023-06-14T05:47:33;10.37;;;6.10;;
13343;SDS011;6741;48.964;9.406;2023-06-14T05:50:00;6.90;;;6.20;;
13343;SDS011;6741;48.964;9.406;2023-06-14T05:52:27;7.30;;;5.60;;
13343;SDS011;6741;48.964;9.406;2023-06-14T05:54:54;6.33;;;5.57;;
13343;SDS011;6741;48.964;9.406;2023-06-14T05:57:23;6.55;;;5.95;;
13343;SDS011;6741;48.964;9.406;2023-06-14T05:59:51;6.90;;;5.22;;
13343;SDS011;6741;48.964;9.406;2023-06-14T06:02:18;5.40;;;5.00;;
13343;SDS011;6741;48.964;9.406;2023-06-14T06:04:45;6.55;;;5.80;;
13343;SDS011;6741;48.964;9.406;2023-06-14T06:07:12;6.17;;;5.57;;
13343;SDS011;6741;48.964;9.406;2023-06-14T06:09:39;5.57;;;5.07;;
13343;SDS011;6741;48.964;9.406;2023-06-14T06:12:06;6.43;;;5.60;;
13343;SDS011;6741;48.964;9.406;2023-06-14T06:14:33;5.60;;;5.10;;
13343;SDS011;6741;48.964;9.406;2023-06-14T06:17:02;7.30;;;5.57;;
13343;SDS011;6741;48.964;9.406;2023-06-14T06:19:29;5.63;;;5.13;;
13343;SDS011;6741;48.964;9.406;2023-06-14T06:21:56;6.57;;;5.70;;
13343;SDS011;6741;48.964;9.406;2023-06-14T06:24:22;5.90;;;4.85;;
13343;SDS011;6741;48.964;9.406;2023-06-14T06:26:49;6.35;;;5.80;;
13343;SDS011;6741;48.964;9.406;2023-06-14T06:29:16;5.65;;;5.15;;
13343;SDS011;6741;48.964;9.406;2023-06-14T06:31:43;6.45;;;5.78;;
13343;SDS011;6741;48.964;9.406;2023-06-14T06:34:12;5.63;;;5.13;;
13343;SDS011;6741;48.964;9.406;2023-06-14T06:36:39;7.82;;;5.57;;
13343;SDS011;6741;48.964;9.406;2023-06-14T06:39:07;7.47;;;5.68;;
13343;SDS011;6741;48.964;9.406;2023-06-14T06:41:35;5.85;;;5.35;;
13343;SDS011;6741;48.964;9.406;2023-06-14T06:44:03;5.97;;;5.30;;
13343;SDS011;6741;48.964;9.406;2023-06-14T06:46:30;5.20;;;4.80;;
13343;SDS011;6741;48.964;9.406;2023-06-14T06:48:57;4.75;;;4.35;;
13343;SDS011;6741;48.964;9.406;2023-06-14T06:51:25;5.53;;;4.97;;
13343;SDS011;6741;48.964;9.406;2023-06-14T06:53:52;6.75;;;4.93;;
13343;SDS011;6741;48.964;9.406;2023-06-14T06:56:19;5.30;;;4.80;;
13343;SDS011;6741;48.964;9.406;2023-06-14T06:58:48;5.70;;;4.90;;
13343;SDS011;6741;48.964;9.406;2023-06-14T07:01:15;5.13;;;4.70;;
13343;SDS011;6741;48.964;9.406;2023-06-14T07:03:42;6.30;;;5.20;;
13343;SDS011;6741;48.964;9.406;2023-06-14T07:06:09;4.95;;;4.55;;
13343;SDS011;6741;48.964;9.406;2023-06-14T07:08:38;5.00;;;4.57;;
13343;SDS011;6741;48.964;9.406;2023-06-14T07:11:05;5.00;;;4.60;;
13343;SDS011;6741;48.964;9.406;2023-06-14T07:13:32;4.80;;;4.40;;
13343;SDS011;6741;48.964;9.406;2023-06-14T07:15:59;5.63;;;5.03;;
13343;SDS011;6741;48.964;9.406;2023-06-14T07:18:26;5.97;;;5.38;;
13343;SDS011;6741;48.964;9.406;2023-06-14T07:20:53;9.43;;;5.38;;
13343;SDS011;6741;48.964;9.406;2023-06-14T07:23:21;5.60;;;5.10;;
13343;SDS011;6741;48.964;9.406;2023-06-14T07:25:49;5.15;;;4.70;;
13343;SDS011;6741;48.964;9.406;2023-06-14T07:28:16;5.55;;;4.35;;
13343;SDS011;6741;48.964;9.406;2023-06-14T07:30:43;5.25;;;4.60;;
13343;SDS011;6741;48.964;9.406;2023-06-14T07:33:10;5.60;;;5.10;;
13343;SDS011;6741;48.964;9.406;2023-06-14T07:35:37;5.50;;;4.80;;
13343;SDS011;6741;48.964;9.406;2023-06-14T07:38:04;5.43;;;4.95;;
13343;SDS011;6741;48.964;9.406;2023-06-14T07:40:31;4.85;;;4.45;;
13343;SDS011;6741;48.964;9.406;2023-06-14T07:42:59;5.72;;;5.22;;
13343;SDS011;6741;48.964;9.406;2023-06-14T07:45:27;6.75;;;4.78;;
13343;SDS011;6741;48.964;9.406;2023-06-14T07:47:54;6.97;;;4.90;;
13343;SDS011;6741;48.964;9.406;2023-06-14T07:50:21;5.95;;;4.90;;
13343;SDS011;6741;48.964;9.406;2023-06-14T07:52:49;4.35;;;4.05;;
13343;SDS011;6741;48.964;9.406;2023-06-14T07:55:15;5.13;;;4.72;;
13343;SDS011;6741;48.964;9.406;2023-06-14T07:57:42;5.38;;;4.82;;
13343;SDS011;6741;48.964;9.406;2023-06-14T08:00:12;5.82;;;4.85;;
13343;SDS011;6741;48.964;9.406;2023-06-14T08:02:40;6.38;;;4.55;;
13343;SDS011;6741;48.964;9.406;2023-06-14T08:05:08;6.28;;;4.82;;
13343;SDS011;6741;48.964;9.406;2023-06-14T08:07:36;6.20;;;4.30;;
13343;SDS011;6741;48.964;9.406;2023-06-14T08:10:03;10.30;;;5.32;;
13343;SDS011;6741;48.964;9.406;2023-06-14T08:12:31;4.97;;;4.47;;
13343;SDS011;6741;48.964;9.406;2023-06-14T08:14:58;7.03;;;4.60;;
13343;SDS011;6741;48.964;9.406;2023-06-14T08:17:27;5.63;;;4.80;;
13343;SDS011;6741;48.964;9.406;2023-06-14T08:19:54;5.53;;;4.35;;
13343;SDS011;6741;48.964;9.406;2023-06-14T08:22:22;6.53;;;4.18;;
13343;SDS011;6741;48.964;9.406;2023-06-14T08:24:51;5.45;;;4.57;;
13343;SDS011;6741;48.964;9.406;2023-06-14T08:27:19;4.60;;;4.20;;
13343;SDS011;6741;48.964;9.406;2023-06-14T08:29:46;6.18;;;4.20;;
13343;SDS011;6741;48.964;9.406;2023-06-14T08:32:13;4.93;;;4.38;;
13343;SDS011;6741;48.964;9.406;2023-06-14T08:34:41;6.53;;;4.85;;
13343;SDS011;6741;48.964;9.406;2023-06-14T08:37:08;4.40;;;4.00;;
13343;SDS011;6741;48.964;9.406;2023-06-14T08:39:35;5.18;;;4.78;;
13343;SDS011;6741;48.964;9.406;2023-06-14T08:42:02;4.10;;;3.80;;
13343;SDS011;6741;48.964;9.406;2023-06-14T08:44:29;4.53;;;4.13;;
13343;SDS011;6741;48.964;9.406;2023-06-14T08:46:56;6.07;;;4.78;;
13343;SDS011;6741;48.964;9.406;2023-06-14T08:49:25;6.90;;;4.63;;
13343;SDS011;6741;48.964;9.406;2023-06-14T08:51:57;4.65;;;4.22;;
13343;SDS011;6741;48.964;9.406;2023-06-14T08:54:25;5.47;;;4.43;;
13343;SDS011;6741;48.964;9.406;2023-06-14T08:56:55;4.82;;;3.78;;
13343;SDS011;6741;48.964;9.406;2023-06-14T08:59:23;7.25;;;4.55;;
13343;SDS011;6741;48.964;9.406;2023-06-14T09:01:51;4.28;;;3.85;;
13343;SDS011;6741;48.964;9.406;2023-06-14T09:04:19;4.28;;;3.88;;
13343;SDS011;6741;48.964;9.406;2023-06-14T09:06:46;5.03;;;4.10;;
13343;SDS011;6741;48.964;9.406;2023-06-14T09:09:19;4.90;;;4.32;;
13343;SDS011;6741;48.964;9.406;2023-06-14T09:11:48;4.78;;;4.25;;
13343;SDS011;6741;48.964;9.406;2023-06-14T09:14:15;4.82;;;4.30;;
13343;SDS011;6741;48.964;9.406;2023-06-14T09:16:44;4.25;;;3.85;;
13343;SDS011;6741;48.964;9.406;2023-06-14T09:19:13;4.72;;;4.32;;
13343;SDS011;6741;48.964;9.406;2023-06-14T09:21:47;4.90;;;3.83;;
13343;SDS011;6741;48.964;9.406;2023-06-14T09:24:14;4.45;;;3.90;;
13343;SDS011;6741;48.964;9.406;2023-06-14T09:26:42;5.40;;;4.15;;
13343;SDS011;6741;48.964;9.406;2023-06-14T09:29:09;4.50;;;4.15;;
13343;SDS011;6741;48.964;9.406;2023-06-14T09:31:36;5.47;;;4.38;;
13343;SDS011;6741;48.964;9.406;2023-06-14T09:34:04;4.72;;;4.22;;
13343;SDS011;6741;48.964;9.406;2023-06-14T09:36:31;4.75;;;4.20;;
13343;SDS011;6741;48.964;9.406;2023-06-14T09:38:59;4.72;;;4.03;;
13343;SDS011;6741;48.964;9.406;2023-06-14T09:41:31;5.28;;;4.00;;
13343;SDS011;6741;48.964;9.406;2023-06-14T09:44:00;4.35;;;3.95;;
13343;SDS011;6741;48.964;9.406;2023-06-14T09:46:28;5.28;;;4.35;;
13343;SDS011;6741;48.964;9.406;2023-06-14T09:48:55;4.43;;;4.10;;
13343;SDS011;6741;48.964;9.406;2023-06-14T09:51:23;4.82;;;4.32;;
13343;SDS011;6741;48.964;9.406;2023-06-14T09:53:51;4.15;;;3.85;;
13343;SDS011;6741;48.964;9.406;2023-06-14T09:56:20;4.20;;;3.80;;
13343;SDS011;6741;48.964;9.406;2023-06-14T09:58:51;6.10;;;3.63;;
13343;SDS011;6741;48.964;9.406;2023-06-14T10:01:23;7.20;;;3.92;;
13343;SDS011;6741;48.964;9.406;2023-06-14T10:03:55;4.07;;;3.63;;
13343;SDS011;6741;48.964;9.406;2023-06-14T10:06:25;4.82;;;3.92;;
13343;SDS011;6741;48.964;9.406;2023-06-14T10:08:55;10.85;;;3.58;;
13343;SDS011;6741;48.964;9.406;2023-06-14T10:11:24;4.05;;;3.65;;
13343;SDS011;6741;48.964;9.406;2023-06-14T10:13:52;5.45;;;3.80;;
13343;SDS011;6741;48.964;9.406;2023-06-14T10:16:23;4.85;;;3.63;;
13343;SDS011;6741;48.964;9.406;2023-06-14T10:18:59;6.30;;;4.20;;
13343;SDS011;6741;48.964;9.406;2023-06-14T10:21:41;6.75;;;4.10;;
13343;SDS011;6741;48.964;9.406;2023-06-14T10:24:15;4.35;;;3.95;;
13343;SDS011;6741;48.964;9.406;2023-06-14T10:26:50;5.00;;;3.72;;
13343;SDS011;6741;48.964;9.406;2023-06-14T10:29:18;3.97;;;3.65;;
13343;SDS011;6741;48.964;9.406;2023-06-14T10:31:47;4.88;;;3.75;;
13343;SDS011;6741;48.964;9.406;2023-06-14T10:34:21;4.95;;;4.07;;
13343;SDS011;6741;48.964;9.406;2023-06-14T10:36:59;3.83;;;3.50;;
13343;SDS011;6741;48.964;9.406;2023-06-14T10:39:28;5.65;;;3.63;;
13343;SDS011;6741;48.964;9.406;2023-06-14T10:41:56;5.35;;;3.70;;
13343;SDS011;6741;48.964;9.406;2023-06-14T10:44:33;4.53;;;4.07;;
13343;SDS011;6741;48.964;9.406;2023-06-14T10:47:09;4.28;;;3.88;;
13343;SDS011;6741;48.964;9.406;2023-06-14T10:49:52;4.43;;;3.42;;
13343;SDS011;6741;48.964;9.406;2023-06-14T10:52:24;3.95;;;3.55;;
13343;SDS011;6741;48.964;9.406;2023-06-14T10:54:59;4.20;;;3.80;;
13343;SDS011;6741;48.964;9.406;2023-06-14T10:57:36;5.57;;;3.65;;
13343;SDS011;6741;48.964;9.406;2023-06-14T11:00:04;5.35;;;3.38;;
13343;SDS011;6741;48.964;9.406;2023-06-14T11:02:51;4.85;;;3.78;;
13343;SDS011;6741;48.964;9.406;2023-06-14T11:05:41;3.90;;;3.60;;
13343;SDS011;6741;48.964;9.406;2023-06-14T11:08:39;4.57;;;3.50;;
13343;SDS011;6741;48.964;9.406;2023-06-14T11:11:17;4.10;;;3.70;;
13343;SDS011;6741;48.964;9.406;2023-06-14T11:13:46;4.95;;;4.18;;
13343;SDS011;6741;48.964;9.406;2023-06-14T11:16:14;3.80;;;3.50;;
13343;SDS011;6741;48.964;9.406;2023-06-14T11:18:43;3.42;;;3.13;;
13343;SDS011;6741;48.964;9.406;2023-06-14T11:21:11;4.55;;;3.45;;
13343;SDS011;6741;48.964;9.406;2023-06-14T11:23:41;5.05;;;4.20;;
13343;SDS011;6741;48.964;9.406;2023-06-14T11:26:14;3.78;;;3.08;;
13343;SDS011;6741;48.964;9.406;2023-06-14T11:28:43;3.40;;;3.10;;
13343;SDS011;6741;48.964;9.406;2023-06-14T11:31:10;6.45;;;3.53;;
13343;SDS011;6741;48.964;9.406;2023-06-14T11:33:37;3.97;;;3.20;;
13343;SDS011;6741;48.964;9.406;2023-06-14T11:36:05;4.57;;;3.78;;
13343;SDS011;6741;48.964;9.406;2023-06-14T11:38:35;3.63;;;3.30;;
13343;SDS011;6741;48.964;9.406;2023-06-14T11:41:02;5.03;;;3.28;;
13343;SDS011;6741;48.964;9.406;2023-06-14T11:43:29;6.65;;;3.92;;
13343;SDS011;6741;48.964;9.406;2023-06-14T11:45:58;4.63;;;4.20;;
13343;SDS011;6741;48.964;9.406;2023-06-14T11:48:35;4.30;;;3.90;;
13343;SDS011;6741;48.964;9.406;2023-06-14T11:51:02;3.88;;;3.42;;
13343;SDS011;6741;48.964;9.406;2023-06-14T11:53:31;3.83;;;3.58;;
13343;SDS011;6741;48.964;9.406;2023-06-14T11:55:58;3.95;;;3.50;;
13343;SDS011;6741;48.964;9.406;2023-06-14T11:58:25;4.10;;;3.75;;
13343;SDS011;6741;48.964;9.406;2023-06-14T12:00:53;5.45;;;3.97;;
13343;SDS011;6741;48.964;9.406;2023-06-14T12:03:22;4.78;;;3.63;;
13343;SDS011;6741;48.964;9.406;2023-06-14T12:05:50;5.38;;;3.60;;
13343;SDS011;6741;48.964;9.406;2023-06-14T12:08:33;4.10;;;3.40;;
13343;SDS011;6741;48.964;9.406;2023-06-14T12:11:04;3.85;;;3.53;;
13343;SDS011;6741;48.964;9.406;2023-06-14T12:13:33;4.07;;;3.72;;
13343;SDS011;6741;48.964;9.406;2023-06-14T12:16:01;4.05;;;3.65;;
13343;SDS011;6741;48.964;9.406;2023-06-14T12:18:33;4.75;;;2.70;;
13343;SDS011;6741;48.964;9.406;2023-06-14T12:21:02;4.05;;;3.70;;
13343;SDS011;6741;48.964;9.406;2023-06-14T12:23:46;4.72;;;3.40;;
13343;SDS011;6741;48.964;9.406;2023-06-14T12:26:14;3.78;;;3.47;;
13343;SDS011;6741;48.964;9.406;2023-06-14T12:28:42;3.55;;;3.20;;
13343;SDS011;6741;48.964;9.406;2023-06-14T12:31:10;3.97;;;3.65;;
13343;SDS011;6741;48.964;9.406;2023-06-14T12:33:38;3.80;;;3.50;;
13343;SDS011;6741;48.964;9.406;2023-06-14T12:36:06;4.10;;;3.35;;
13343;SDS011;6741;48.964;9.406;2023-06-14T12:38:35;4.10;;;3.70;;
13343;SDS011;6741;48.964;9.406;2023-06-14T12:41:03;3.67;;;3.38;;
13343;SDS011;6741;48.964;9.406;2023-06-14T12:43:31;4.93;;;3.50;;
13343;SDS011;6741;48.964;9.406;2023-06-14T12:45:58;3.25;;;3.05;;
13343;SDS011;6741;48.964;9.406;2023-06-14T12:48:25;3.90;;;3.40;;
13343;SDS011;6741;48.964;9.406;2023-06-14T12:50:52;4.78;;;3.33;;
13343;SDS011;6741;48.964;9.406;2023-06-14T12:53:19;4.40;;;3.13;;
13343;SDS011;6741;48.964;9.406;2023-06-14T12:55:46;3.13;;;2.92;;
13343;SDS011;6741;48.964;9.406;2023-06-14T12:58:14;3.40;;;3.10;;
13343;SDS011;6741;48.964;9.406;2023-06-14T13:00:42;3.85;;;3.17;;
13343;SDS011;6741;48.964;9.406;2023-06-14T13:03:10;5.15;;;3.40;;
13343;SDS011;6741;48.964;9.406;2023-06-14T13:05:37;3.45;;;3.17;;
13343;SDS011;6741;48.964;9.406;2023-06-14T13:08:06;4.43;;;3.38;;
13343;SDS011;6741;48.964;9.406;2023-06-14T13:10:34;3.65;;;3.30;;
13343;SDS011;6741;48.964;9.406;2023-06-14T13:13:02;3.53;;;3.22;;
13343;SDS011;6741;48.964;9.406;2023-06-14T13:15:30;5.22;;;3.50;;
13343;SDS011;6741;48.964;9.406;2023-06-14T13:17:57;3.63;;;3.33;;
13343;SDS011;6741;48.964;9.406;2023-06-14T13:20:24;4.18;;;3.80;;
13343;SDS011;6741;48.964;9.406;2023-06-14T13:22:51;3.50;;;3.15;;
13343;SDS011;6741;48.964;9.406;2023-06-14T13:25:18;4.05;;;3.45;;
13343;SDS011;6741;48.964;9.406;2023-06-14T13:27:45;4.93;;;3.45;;
13343;SDS011;6741;48.964;9.406;2023-06-14T13:30:12;4.78;;;3.50;;
13343;SDS011;6741;48.964;9.406;2023-06-14T13:32:41;3.50;;;3.20;;
13343;SDS011;6741;48.964;9.406;2023-06-14T13:35:08;4.00;;;3.70;;
13343;SDS011;6741;48.964;9.406;2023-06-14T13:37:35;3.25;;;2.95;;
13343;SDS011;6741;48.964;9.406;2023-06-14T13:40:02;3.38;;;3.08;;
13343;SDS011;6741;48.964;9.406;2023-06-14T13:42:30;4.18;;;3.22;;
13343;SDS011;6741;48.964;9.406;2023-06-14T13:44:58;3.58;;;3.28;;
13343;SDS011;6741;48.964;9.406;2023-06-14T13:47:25;3.85;;;3.50;;
13343;SDS011;6741;48.964;9.406;2023-06-14T13:49:53;3.60;;;3.30;;
13343;SDS011;6741;48.964;9.406;2023-06-14T13:52:20;3.17;;;2.80;;
13343;SDS011;6741;48.964;9.406;2023-06-14T13:54:47;3.95;;;3.25;;
13343;SDS011;6741;48.964;9.406;2023-06-14T13:57:14;3.45;;;3.15;;
13343;SDS011;6741;48.964;9.406;2023-06-14T13:59:42;5.15;;;3.22;;
13343;SDS011;6741;48.964;9.406;2023-06-14T14:02:10;3.97;;;3.63;;
13343;SDS011;6741;48.964;9.406;2023-06-14T14:04:38;3.72;;;3.42;;
13343;SDS011;6741;48.964;9.406;2023-06-14T14:07:07;3.70;;;3.40;;
13343;SDS011;6741;48.964;9.406;2023-06-14T14:09:34;3.70;;;3.40;;
13343;SDS011;6741;48.964;9.406;2023-06-14T14:12:02;3.35;;;3.05;;
13343;SDS011;6741;48.964;9.406;2023-06-14T14:14:30;3.67;;;3.38;;
13343;SDS011;6741;48.964;9.406;2023-06-14T14:16:58;3.35;;;3.13;;
13343;SDS011;6741;48.964;9.406;2023-06-14T14:19:25;3.67;;;3.20;;
13343;SDS011;6741;48.964;9.406;2023-06-14T14:21:52;3.63;;;3.33;;
13343;SDS011;6741;48.964;9.406;2023-06-14T14:24:21;3.45;;;3.17;;
13343;SDS011;6741;48.964;9.406;2023-06-14T14:26:47;3.63;;;3.22;;
13343;SDS011;6741;48.964;9.406;2023-06-14T14:29:15;4.63;;;3.30;;
13343;SDS011;6741;48.964;9.406;2023-06-14T14:31:42;3.58;;;3.00;;
13343;SDS011;6741;48.964;9.406;2023-06-14T14:34:09;3.17;;;2.90;;
13343;SDS011;6741;48.964;9.406;2023-06-14T14:36:36;3.50;;;3.20;;
13343;SDS011;6741;48.964;9.406;2023-06-14T14:39:06;3.85;;;3.45;;
13343;SDS011;6741;48.964;9.406;2023-06-14T14:41:34;3.70;;;3.33;;
13343;SDS011;6741;48.964;9.406;2023-06-14T14:44:02;3.25;;;3.05;;
13343;SDS011;6741;48.964;9.406;2023-06-14T14:46:30;3.53;;;2.92;;
13343;SDS011;6741;48.964;9.406;2023-06-14T14:48:58;3.55;;;2.97;;
13343;SDS011;6741;48.964;9.406;2023-06-14T14:51:25;3.15;;;2.83;;
13343;SDS011;6741;48.964;9.406;2023-06-14T14:53:52;3.80;;;3.33;;
13343;SDS011;6741;48.964;9.406;2023-06-14T14:56:19;4.28;;;3.53;;
13343;SDS011;6741;48.964;9.406;2023-06-14T14:58:47;3.58;;;3.22;;
13343;SDS011;6741;48.964;9.406;2023-06-14T15:01:14;4.13;;;3.22;;
13343;SDS011;6741;48.964;9.406;2023-06-14T15:03:41;5.03;;;4.00;;
13343;SDS011;6741;48.964;9.406;2023-06-14T15:06:08;3.35;;;3.05;;
13343;SDS011;6741;48.964;9.406;2023-06-14T15:08:35;3.42;;;3.10;;